Time;durP1;ratioP1;P1;durP2;ratioP2;P2;SDS_P1;SDS_P2;PMS_P1;PMS_P2;Temp;Humidity;BMP_temperature;BMP_pressure;BME280_temperature;BME280_humidity;BME280_pressure;Samples;Min_cycle;Max_cycle;Signal;HPM_P1;HPM_P2
2024/02/18 00:00:59;;;;;;;13.32;6.13;;;;;;;;;;5001649;28;25058;-64
2024/02/18 00:03:25;;;;;;;13.93;6.30;;;;;;;;;;5002696;28;25083;-65
2024/02/18 00:05:51;;;;;;;14.68;5.72;;;;;;;;;;5005317;28;25077;-65
2024/02/18 00:08:17;;;;;;;11.93;5.97;;;;;;;;;;5002860;28;25063;-64
2024/02/18 00:10:43;;;;;;;18.02;6.78;;;;;;;;;;4987541;28;25067;-65
2024/02/18 00:13:09;;;;;;;18.33;6.32;;;;;;;;;;4980361;28;25070;-65
2024/02/18 00:15:35;;;;;;;14.70;6.93;;;;;;;;;;5006463;28;25068;-66
2024/02/18 00:18:02;;;;;;;15.85;6.45;;;;;;;;;;4999154;28;25127;-64
2024/02/18 00:20:28;;;;;;;19.00;6.97;;;;;;;;;;5007056;28;25096;-64
2024/02/18 00:22:54;;;;;;;14.52;6.13;;;;;;;;;;5009574;28;25063;-65
2024/02/18 00:25:20;;;;;;;18.48;6.55;;;;;;;;;;4990301;28;25058;-66
2024/02/18 00:27:46;;;;;;;15.90;6.47;;;;;;;;;;5009161;28;25074;-67
2024/02/18 00:30:12;;;;;;;20.15;6.45;;;;;;;;;;5005086;28;25131;-64
2024/02/18 00:32:38;;;;;;;16.58;6.68;;;;;;;;;;5005276;28;25136;-64
2024/02/18 00:35:05;;;;;;;17.70;6.35;;;;;;;;;;5002263;28;25082;-65
2024/02/18 00:37:31;;;;;;;10.95;6.05;;;;;;;;;;5000650;28;25055;-65
2024/02/18 00:39:57;;;;;;;20.67;7.10;;;;;;;;;;4986474;28;25049;-65
2024/02/18 00:42:24;;;;;;;21.00;6.25;;;;;;;;;;5005609;28;25076;-65
2024/02/18 00:44:50;;;;;;;18.67;6.40;;;;;;;;;;5002883;28;25053;-65
2024/02/18 00:47:16;;;;;;;17.35;6.88;;;;;;;;;;4989850;28;25097;-64
2024/02/18 00:49:42;;;;;;;20.05;7.75;;;;;;;;;;5000512;28;25062;-63
2024/02/18 00:52:08;;;;;;;17.80;5.65;;;;;;;;;;5000894;28;25060;-64
2024/02/18 00:54:34;;;;;;;19.30;6.50;;;;;;;;;;5004342;28;25075;-65
2024/02/18 00:57:00;;;;;;;15.07;6.07;;;;;;;;;;5007771;28;25073;-63
2024/02/18 00:59:26;;;;;;;18.30;5.82;;;;;;;;;;5008285;28;25156;-65
2024/02/18 01:01:52;;;;;;;17.25;5.63;;;;;;;;;;5003169;28;25097;-64
2024/02/18 01:04:18;;;;;;;16.88;6.22;;;;;;;;;;5000204;28;25065;-66
2024/02/18 01:06:44;;;;;;;13.10;6.18;;;;;;;;;;5007055;28;25060;-66
2024/02/18 01:09:10;;;;;;;13.93;5.18;;;;;;;;;;4985847;28;25068;-63
2024/02/18 01:11:36;;;;;;;19.90;5.20;;;;;;;;;;5004056;28;25062;-64
2024/02/18 01:14:02;;;;;;;15.48;5.80;;;;;;;;;;5000793;28;25070;-64
2024/02/18 01:16:32;;;;;;;12.05;5.78;;;;;;;;;;5005311;28;25129;-64
2024/02/18 01:18:58;;;;;;;16.15;6.13;;;;;;;;;;5004618;28;25056;-63
2024/02/18 01:21:24;;;;;;;13.75;5.15;;;;;;;;;;5004679;28;25074;-64
2024/02/18 01:23:50;;;;;;;13.07;5.32;;;;;;;;;;5002837;28;25082;-64
2024/02/18 01:26:16;;;;;;;12.23;4.88;;;;;;;;;;5000449;28;25148;-64
2024/02/18 01:28:42;;;;;;;12.23;4.72;;;;;;;;;;5001639;28;25057;-67
2024/02/18 01:31:08;;;;;;;18.85;5.00;;;;;;;;;;5004805;28;25058;-64
2024/02/18 01:33:34;;;;;;;13.63;5.07;;;;;;;;;;4999733;28;25063;-64
2024/02/18 01:36:00;;;;;;;15.98;5.25;;;;;;;;;;4999090;28;25084;-63
2024/02/18 01:38:26;;;;;;;11.90;4.30;;;;;;;;;;5001398;28;25153;-65
2024/02/18 01:40:52;;;;;;;17.08;5.03;;;;;;;;;;5001949;28;25084;-64
2024/02/18 01:43:18;;;;;;;15.27;4.70;;;;;;;;;;5002680;28;25064;-62
2024/02/18 01:45:45;;;;;;;12.60;4.70;;;;;;;;;;5016516;28;25079;-64
2024/02/18 01:48:12;;;;;;;11.77;4.55;;;;;;;;;;5015330;28;25075;-62
2024/02/18 01:50:38;;;;;;;15.07;4.80;;;;;;;;;;5002965;28;25084;-63
2024/02/18 01:53:04;;;;;;;14.00;4.25;;;;;;;;;;5012486;28;25102;-66
2024/02/18 01:55:31;;;;;;;14.25;4.60;;;;;;;;;;5004394;28;25063;-63
2024/02/18 01:57:58;;;;;;;13.52;4.18;;;;;;;;;;4988781;28;25063;-63
2024/02/18 02:00:25;;;;;;;7.10;3.28;;;;;;;;;;5003981;28;25062;-65
2024/02/18 02:02:51;;;;;;;12.80;4.13;;;;;;;;;;4999841;28;25086;-66
2024/02/18 02:05:19;;;;;;;14.10;5.13;;;;;;;;;;5007123;28;25110;-64
2024/02/18 02:07:45;;;;;;;17.45;4.00;;;;;;;;;;5003729;28;25074;-65
2024/02/18 02:10:12;;;;;;;12.85;4.13;;;;;;;;;;5000071;28;25157;-64
2024/02/18 02:12:38;;;;;;;11.02;3.38;;;;;;;;;;5002667;28;25069;-63
2024/02/18 02:15:05;;;;;;;12.35;3.97;;;;;;;;;;5000996;28;25056;-64
2024/02/18 02:17:31;;;;;;;16.13;4.35;;;;;;;;;;5002808;28;25122;-62
2024/02/18 02:19:57;;;;;;;13.48;3.47;;;;;;;;;;5002937;28;25348;-63
2024/02/18 02:22:23;;;;;;;6.97;3.47;;;;;;;;;;5002693;28;25061;-64
2024/02/18 02:24:49;;;;;;;10.98;3.40;;;;;;;;;;5006200;28;25065;-64
2024/02/18 02:27:19;;;;;;;10.82;3.55;;;;;;;;;;4984031;28;25085;-64
2024/02/18 02:29:45;;;;;;;12.18;4.32;;;;;;;;;;4984436;28;25061;-64
2024/02/18 02:32:12;;;;;;;15.27;4.00;;;;;;;;;;4996413;28;25059;-64
2024/02/18 02:34:38;;;;;;;7.10;3.17;;;;;;;;;;5003063;28;25147;-65
2024/02/18 02:37:04;;;;;;;6.97;3.25;;;;;;;;;;4997667;28;25141;-64
2024/02/18 02:39:30;;;;;;;10.90;4.25;;;;;;;;;;4999558;28;25091;-64
2024/02/18 02:41:56;;;;;;;11.85;3.67;;;;;;;;;;5001634;28;25101;-64
2024/02/18 02:44:22;;;;;;;17.35;3.90;;;;;;;;;;4997565;28;25097;-64
2024/02/18 02:46:48;;;;;;;16.42;5.03;;;;;;;;;;5006515;28;25151;-65
2024/02/18 02:49:14;;;;;;;13.48;4.10;;;;;;;;;;5001650;28;25130;-65
2024/02/18 02:51:42;;;;;;;9.38;4.10;;;;;;;;;;5002720;28;25077;-64
2024/02/18 02:54:08;;;;;;;10.05;4.10;;;;;;;;;;4997684;28;25059;-64
2024/02/18 02:56:34;;;;;;;11.57;3.88;;;;;;;;;;5002372;28;25046;-63
2024/02/18 02:59:00;;;;;;;12.63;4.10;;;;;;;;;;4995988;28;25140;-63
2024/02/18 03:01:26;;;;;;;12.60;3.95;;;;;;;;;;5002321;28;25087;-64
2024/02/18 03:03:52;;;;;;;11.63;3.67;;;;;;;;;;5003620;28;25086;-66
2024/02/18 03:06:18;;;;;;;12.10;4.00;;;;;;;;;;4995618;28;25079;-66
2024/02/18 03:08:44;;;;;;;15.50;4.28;;;;;;;;;;5004218;28;25062;-64
2024/02/18 03:11:11;;;;;;;17.92;4.13;;;;;;;;;;5003624;28;25048;-64
2024/02/18 03:13:37;;;;;;;9.82;4.10;;;;;;;;;;4980894;28;25055;-66
2024/02/18 03:16:03;;;;;;;15.43;4.05;;;;;;;;;;5000330;28;25104;-63
2024/02/18 03:18:29;;;;;;;10.55;3.83;;;;;;;;;;5000526;28;25064;-66
2024/02/18 03:20:57;;;;;;;7.50;3.33;;;;;;;;;;4999937;28;25165;-66
2024/02/18 03:23:23;;;;;;;12.27;4.20;;;;;;;;;;4998092;28;25082;-64
2024/02/18 03:25:49;;;;;;;9.25;3.28;;;;;;;;;;4998380;28;25099;-64
2024/02/18 03:28:15;;;;;;;12.35;3.15;;;;;;;;;;4999407;28;25206;-65
2024/02/18 03:30:41;;;;;;;13.50;3.50;;;;;;;;;;5002551;28;25098;-64
2024/02/18 03:33:06;;;;;;;13.35;4.05;;;;;;;;;;5000859;28;25148;-65
2024/02/18 03:35:32;;;;;;;10.98;4.05;;;;;;;;;;4997642;28;25123;-66
2024/02/18 03:37:59;;;;;;;7.57;3.33;;;;;;;;;;4993962;28;25068;-66
2024/02/18 03:40:25;;;;;;;13.55;3.90;;;;;;;;;;4980871;28;25057;-65
2024/02/18 03:42:51;;;;;;;17.92;3.53;;;;;;;;;;4999413;28;25075;-63
2024/02/18 03:45:17;;;;;;;12.35;3.55;;;;;;;;;;5002813;28;25103;-65
2024/02/18 03:47:46;;;;;;;11.90;3.53;;;;;;;;;;4999295;28;25093;-63
2024/02/18 03:50:14;;;;;;;12.48;3.78;;;;;;;;;;5000868;28;25150;-64
2024/02/18 03:52:42;;;;;;;14.07;4.38;;;;;;;;;;5001087;28;25091;-62
2024/02/18 03:55:08;;;;;;;15.25;4.18;;;;;;;;;;5001240;28;25053;-64
2024/02/18 03:57:34;;;;;;;14.75;3.80;;;;;;;;;;4996759;28;25076;-63
2024/02/18 04:00:00;;;;;;;14.70;4.47;;;;;;;;;;4991271;28;25129;-64
2024/02/18 04:02:26;;;;;;;8.77;3.90;;;;;;;;;;5003516;28;25071;-63
2024/02/18 04:04:52;;;;;;;7.13;3.15;;;;;;;;;;5016041;28;25061;-64
2024/02/18 04:07:18;;;;;;;10.27;4.75;;;;;;;;;;5011172;28;25067;-63
2024/02/18 04:09:45;;;;;;;10.75;3.90;;;;;;;;;;5010847;28;25092;-62
2024/02/18 04:12:11;;;;;;;13.65;4.07;;;;;;;;;;5004551;28;25079;-65
2024/02/18 04:14:37;;;;;;;15.18;3.78;;;;;;;;;;4997091;28;25056;-64
2024/02/18 04:17:03;;;;;;;14.90;3.88;;;;;;;;;;4996453;28;25082;-63
2024/02/18 04:19:29;;;;;;;12.25;4.22;;;;;;;;;;5001413;28;25044;-64
2024/02/18 04:21:55;;;;;;;13.13;3.63;;;;;;;;;;5002407;28;25055;-62
2024/02/18 04:24:21;;;;;;;11.85;3.25;;;;;;;;;;4995635;28;25087;-63
2024/02/18 04:26:47;;;;;;;13.60;4.07;;;;;;;;;;5001477;28;25081;-63
2024/02/18 04:29:13;;;;;;;14.07;4.47;;;;;;;;;;5002136;28;25071;-64
2024/02/18 04:31:41;;;;;;;13.32;4.20;;;;;;;;;;5007744;28;25109;-61
2024/02/18 04:34:07;;;;;;;15.02;5.35;;;;;;;;;;5000188;28;25074;-64
2024/02/18 04:36:33;;;;;;;14.75;4.72;;;;;;;;;;5004160;28;25063;-65
2024/02/18 04:38:59;;;;;;;15.38;4.47;;;;;;;;;;5005356;28;25071;-64
2024/02/18 04:41:25;;;;;;;18.38;4.57;;;;;;;;;;5008320;28;25142;-63
2024/02/18 04:43:51;;;;;;;15.45;4.45;;;;;;;;;;5003705;28;25113;-63
2024/02/18 04:46:17;;;;;;;12.38;4.05;;;;;;;;;;5003352;28;25083;-64
2024/02/18 04:48:43;;;;;;;22.00;5.03;;;;;;;;;;5004623;28;25056;-64
2024/02/18 04:51:09;;;;;;;15.15;4.60;;;;;;;;;;4999749;28;25063;-64
2024/02/18 04:53:35;;;;;;;13.25;4.53;;;;;;;;;;5005009;28;25065;-64
2024/02/18 04:56:01;;;;;;;18.10;4.60;;;;;;;;;;4996328;28;25067;-63
2024/02/18 04:58:27;;;;;;;10.48;3.85;;;;;;;;;;5001883;28;25075;-63
2024/02/18 05:00:53;;;;;;;15.88;4.28;;;;;;;;;;5001693;28;25057;-63
2024/02/18 05:03:21;;;;;;;13.15;4.88;;;;;;;;;;5001993;28;25079;-64
2024/02/18 05:05:47;;;;;;;11.35;3.72;;;;;;;;;;5004647;28;25064;-63
2024/02/18 05:08:13;;;;;;;13.38;4.28;;;;;;;;;;5003282;28;25052;-64
2024/02/18 05:10:40;;;;;;;17.75;5.03;;;;;;;;;;4999470;28;25071;-63
2024/02/18 05:13:06;;;;;;;12.40;5.22;;;;;;;;;;4997697;28;25076;-63
2024/02/18 05:15:32;;;;;;;12.20;4.70;;;;;;;;;;5005216;28;25046;-64
2024/02/18 05:17:58;;;;;;;16.75;5.05;;;;;;;;;;5004680;28;25082;-62
2024/02/18 05:20:25;;;;;;;22.17;5.13;;;;;;;;;;5003328;28;25127;-63
2024/02/18 05:22:51;;;;;;;10.80;4.50;;;;;;;;;;5005490;28;25048;-63
2024/02/18 05:25:17;;;;;;;11.82;5.38;;;;;;;;;;5003864;28;25083;-65
2024/02/18 05:27:43;;;;;;;12.65;4.97;;;;;;;;;;5001899;28;25096;-65
2024/02/18 05:30:11;;;;;;;18.45;4.68;;;;;;;;;;5005058;28;25058;-64
2024/02/18 05:32:37;;;;;;;21.65;5.03;;;;;;;;;;4986263;28;25063;-63
2024/02/18 05:35:03;;;;;;;14.57;4.70;;;;;;;;;;5000769;28;25133;-64
2024/02/18 05:37:29;;;;;;;17.75;5.70;;;;;;;;;;4997858;28;25145;-65
2024/02/18 05:39:55;;;;;;;13.25;4.95;;;;;;;;;;5002573;28;25072;-65
2024/02/18 05:42:21;;;;;;;19.75;5.38;;;;;;;;;;5004598;28;25117;-65
2024/02/18 05:44:47;;;;;;;15.27;5.35;;;;;;;;;;4988702;28;25082;-63
2024/02/18 05:47:13;;;;;;;15.90;5.22;;;;;;;;;;5002931;28;25083;-65
2024/02/18 05:49:39;;;;;;;17.08;4.93;;;;;;;;;;5007171;28;25068;-67
2024/02/18 05:52:05;;;;;;;14.00;5.07;;;;;;;;;;5001492;28;25098;-68
2024/02/18 05:54:31;;;;;;;15.50;4.78;;;;;;;;;;4988662;28;25148;-66
2024/02/18 05:56:57;;;;;;;11.68;4.57;;;;;;;;;;5006131;28;25082;-68
2024/02/18 05:59:23;;;;;;;12.02;5.18;;;;;;;;;;5000611;28;25055;-67
2024/02/18 06:01:49;;;;;;;15.68;4.65;;;;;;;;;;5006476;28;25076;-67
2024/02/18 06:04:15;;;;;;;13.82;4.88;;;;;;;;;;5004955;28;25137;-63
2024/02/18 06:06:41;;;;;;;16.52;5.03;;;;;;;;;;5001608;28;25062;-67
2024/02/18 06:09:07;;;;;;;16.60;4.88;;;;;;;;;;5003323;28;25176;-64
2024/02/18 06:11:33;;;;;;;15.82;4.80;;;;;;;;;;5003247;28;25086;-65
2024/02/18 06:13:59;;;;;;;19.77;5.55;;;;;;;;;;5003178;28;25097;-64
2024/02/18 06:16:25;;;;;;;14.05;4.60;;;;;;;;;;5007709;28;25079;-65
2024/02/18 06:18:51;;;;;;;19.42;5.35;;;;;;;;;;5010473;28;25050;-65
2024/02/18 06:21:20;;;;;;;11.43;4.65;;;;;;;;;;5009876;28;25061;-66
2024/02/18 06:23:47;;;;;;;11.27;4.80;;;;;;;;;;5018819;28;25069;-67
2024/02/18 06:26:13;;;;;;;12.10;4.22;;;;;;;;;;5025635;28;25055;-65
2024/02/18 06:28:39;;;;;;;14.48;4.93;;;;;;;;;;5019231;28;25051;-68
2024/02/18 06:31:05;;;;;;;19.38;5.43;;;;;;;;;;5007425;28;25102;-64
2024/02/18 06:33:30;;;;;;;10.70;5.03;;;;;;;;;;5009068;28;25149;-65
2024/02/18 06:35:57;;;;;;;18.15;5.00;;;;;;;;;;5008043;28;25062;-67
2024/02/18 06:38:23;;;;;;;20.92;5.25;;;;;;;;;;4990386;28;25087;-66
2024/02/18 06:40:49;;;;;;;11.65;4.68;;;;;;;;;;5013561;28;25058;-65
2024/02/18 06:43:14;;;;;;;15.50;5.05;;;;;;;;;;5018943;28;25046;-67
2024/02/18 06:45:40;;;;;;;13.15;4.72;;;;;;;;;;5004837;28;25082;-66
2024/02/18 06:48:07;;;;;;;13.77;5.57;;;;;;;;;;4999490;28;25089;-66
2024/02/18 06:50:33;;;;;;;16.85;5.55;;;;;;;;;;4995736;28;25053;-65
2024/02/18 06:52:59;;;;;;;17.05;5.25;;;;;;;;;;5000278;28;25077;-66
2024/02/18 06:55:24;;;;;;;15.68;4.88;;;;;;;;;;4996015;28;25122;-67
2024/02/18 06:57:50;;;;;;;16.85;6.18;;;;;;;;;;5001404;28;25092;-65
2024/02/18 07:00:17;;;;;;;27.73;5.53;;;;;;;;;;5002699;28;25074;-65
2024/02/18 07:02:43;;;;;;;12.55;4.63;;;;;;;;;;5002901;28;25129;-65
2024/02/18 07:05:09;;;;;;;11.68;4.50;;;;;;;;;;5000641;28;25146;-68
2024/02/18 07:07:35;;;;;;;15.73;5.45;;;;;;;;;;5001347;28;25080;-66
2024/02/18 07:10:01;;;;;;;15.77;5.72;;;;;;;;;;5003274;28;25071;-65
2024/02/18 07:12:29;;;;;;;20.38;5.00;;;;;;;;;;4989395;28;25048;-66
2024/02/18 07:14:55;;;;;;;18.90;5.53;;;;;;;;;;5003838;28;25178;-66
2024/02/18 07:17:21;;;;;;;14.63;5.15;;;;;;;;;;5000488;28;25067;-67
2024/02/18 07:19:48;;;;;;;18.13;5.50;;;;;;;;;;5000237;28;24941;-68
2024/02/18 07:22:15;;;;;;;10.05;5.28;;;;;;;;;;5002168;28;25049;-67
2024/02/18 07:24:41;;;;;;;20.40;5.35;;;;;;;;;;4997264;28;25079;-67
2024/02/18 07:27:07;;;;;;;17.35;5.25;;;;;;;;;;5003702;28;25116;-67
2024/02/18 07:29:33;;;;;;;15.65;6.10;;;;;;;;;;4997811;28;25112;-67
2024/02/18 07:31:59;;;;;;;19.30;5.95;;;;;;;;;;4994952;28;25090;-65
2024/02/18 07:34:25;;;;;;;23.30;5.63;;;;;;;;;;5005140;28;25071;-68
2024/02/18 07:36:51;;;;;;;16.20;4.80;;;;;;;;;;4994484;28;25045;-67
2024/02/18 07:39:17;;;;;;;15.82;5.03;;;;;;;;;;5002004;28;25081;-66
2024/02/18 07:41:43;;;;;;;17.33;4.88;;;;;;;;;;4998414;28;25134;-67
2024/02/18 07:44:09;;;;;;;18.58;5.13;;;;;;;;;;4986260;28;25068;-66
2024/02/18 07:46:35;;;;;;;16.30;5.38;;;;;;;;;;5000061;28;25071;-67
2024/02/18 07:49:02;;;;;;;20.58;5.32;;;;;;;;;;5005491;28;25149;-68
2024/02/18 07:51:28;;;;;;;10.43;5.10;;;;;;;;;;5005467;28;25063;-68
2024/02/18 07:53:55;;;;;;;17.30;4.65;;;;;;;;;;5005871;28;25094;-68
2024/02/18 07:56:21;;;;;;;13.88;5.13;;;;;;;;;;4998782;28;25045;-66
2024/02/18 07:58:48;;;;;;;12.05;5.18;;;;;;;;;;4999248;28;25070;-68
2024/02/18 08:01:14;;;;;;;16.48;4.95;;;;;;;;;;4998273;28;25044;-66
2024/02/18 08:03:40;;;;;;;19.90;5.03;;;;;;;;;;5003000;28;25078;-67
2024/02/18 08:06:08;;;;;;;11.52;4.95;;;;;;;;;;5001634;28;25062;-65
2024/02/18 08:08:34;;;;;;;13.52;4.63;;;;;;;;;;5004775;28;25071;-70
2024/02/18 08:11:00;;;;;;;10.98;4.35;;;;;;;;;;5007558;28;25090;-68
2024/02/18 08:13:26;;;;;;;18.83;5.18;;;;;;;;;;5005081;28;25070;-67
2024/02/18 08:15:52;;;;;;;15.73;4.63;;;;;;;;;;5006919;28;25143;-69
2024/02/18 08:18:18;;;;;;;10.73;4.57;;;;;;;;;;5007481;28;25077;-68
2024/02/18 08:20:45;;;;;;;16.45;5.22;;;;;;;;;;5000004;28;25061;-68
2024/02/18 08:23:11;;;;;;;14.77;4.70;;;;;;;;;;5004958;28;25084;-65
2024/02/18 08:25:37;;;;;;;16.63;4.55;;;;;;;;;;5003402;28;25207;-68
2024/02/18 08:28:03;;;;;;;18.08;4.85;;;;;;;;;;5007631;28;25095;-67
2024/02/18 08:30:29;;;;;;;10.52;4.68;;;;;;;;;;5004258;28;25079;-68
2024/02/18 08:32:55;;;;;;;19.40;5.22;;;;;;;;;;5002566;28;25101;-66
2024/02/18 08:35:22;;;;;;;14.60;4.78;;;;;;;;;;5006459;28;25065;-65
2024/02/18 08:37:49;;;;;;;11.82;4.35;;;;;;;;;;5002991;28;25104;-67
2024/02/18 08:40:15;;;;;;;17.17;4.25;;;;;;;;;;5009071;28;25061;-65
2024/02/18 08:42:41;;;;;;;13.93;4.30;;;;;;;;;;5013327;28;25125;-68
2024/02/18 08:45:08;;;;;;;17.67;5.72;;;;;;;;;;5007748;28;25142;-67
2024/02/18 08:47:34;;;;;;;18.33;5.03;;;;;;;;;;5021676;28;25076;-66
2024/02/18 08:50:00;;;;;;;13.80;4.20;;;;;;;;;;5015740;28;25109;-67
2024/02/18 08:52:26;;;;;;;19.38;5.93;;;;;;;;;;5006892;28;25068;-70
2024/02/18 08:54:52;;;;;;;19.45;5.10;;;;;;;;;;5006011;28;25074;-66
2024/02/18 08:57:18;;;;;;;12.52;4.65;;;;;;;;;;5003487;28;25067;-67
2024/02/18 08:59:44;;;;;;;17.25;4.53;;;;;;;;;;5005539;28;25176;-68
2024/02/18 09:02:10;;;;;;;16.35;4.95;;;;;;;;;;5008214;28;25083;-68
2024/02/18 09:04:36;;;;;;;10.68;4.32;;;;;;;;;;4988494;28;25063;-67
2024/02/18 09:07:03;;;;;;;19.55;4.85;;;;;;;;;;4999796;28;25129;-67
2024/02/18 09:09:30;;;;;;;19.02;5.10;;;;;;;;;;5005250;28;25146;-68
2024/02/18 09:11:56;;;;;;;23.45;5.47;;;;;;;;;;5009970;28;25078;-68
2024/02/18 09:14:22;;;;;;;15.75;5.13;;;;;;;;;;5008737;28;25083;-68
2024/02/18 09:16:48;;;;;;;21.83;5.25;;;;;;;;;;5006349;28;25127;-70
2024/02/18 09:19:14;;;;;;;12.65;4.78;;;;;;;;;;4983342;28;25149;-67
2024/02/18 09:21:40;;;;;;;15.20;5.15;;;;;;;;;;5006346;28;25156;-66
2024/02/18 09:24:06;;;;;;;17.67;4.93;;;;;;;;;;5004870;28;25112;-66
2024/02/18 09:26:32;;;;;;;14.15;4.90;;;;;;;;;;5001059;28;25105;-66
2024/02/18 09:28:58;;;;;;;17.17;5.32;;;;;;;;;;5005086;28;25161;-69
2024/02/18 09:31:24;;;;;;;13.82;4.85;;;;;;;;;;4999178;28;25172;-67
2024/02/18 09:33:50;;;;;;;20.52;5.50;;;;;;;;;;4987714;28;25139;-67
2024/02/18 09:36:16;;;;;;;10.88;4.80;;;;;;;;;;5005955;28;25061;-67
2024/02/18 09:38:42;;;;;;;16.42;5.60;;;;;;;;;;5000640;28;25094;-66
2024/02/18 09:41:16;;;;;;;10.77;5.50;;;;;;;;;;5003492;28;25072;-66
2024/02/18 09:43:45;;;;;;;19.88;5.95;;;;;;;;;;5007588;28;25165;-66
2024/02/18 09:46:13;;;;;;;20.10;5.63;;;;;;;;;;5004325;28;25096;-67
2024/02/18 09:48:39;;;;;;;23.10;6.13;;;;;;;;;;5003730;28;25148;-67
2024/02/18 09:51:06;;;;;;;14.40;5.40;;;;;;;;;;5006445;28;25097;-66
2024/02/18 09:53:34;;;;;;;15.50;4.70;;;;;;;;;;5004532;28;25081;-68
2024/02/18 09:56:00;;;;;;;13.57;5.63;;;;;;;;;;5004829;28;25074;-67
2024/02/18 09:58:26;;;;;;;11.10;5.28;;;;;;;;;;4999481;28;25110;-66
2024/02/18 10:00:53;;;;;;;13.65;5.28;;;;;;;;;;5003845;28;25152;-66
2024/02/18 10:03:19;;;;;;;15.65;5.90;;;;;;;;;;5005327;28;25088;-65
2024/02/18 10:05:45;;;;;;;16.83;5.90;;;;;;;;;;5006714;28;25127;-67
2024/02/18 10:08:11;;;;;;;17.25;5.85;;;;;;;;;;5000955;28;25407;-67
2024/02/18 10:10:37;;;;;;;15.35;6.18;;;;;;;;;;4983659;28;25046;-66
2024/02/18 10:13:04;;;;;;;20.13;5.50;;;;;;;;;;5001944;28;25143;-66
2024/02/18 10:15:30;;;;;;;21.33;6.80;;;;;;;;;;4988924;28;25076;-69
2024/02/18 10:17:57;;;;;;;15.65;6.90;;;;;;;;;;5000837;28;25149;-65
2024/02/18 10:20:24;;;;;;;15.25;6.43;;;;;;;;;;5002425;28;25070;-67
2024/02/18 10:22:50;;;;;;;28.02;6.75;;;;;;;;;;5000841;28;25052;-68
2024/02/18 10:25:18;;;;;;;25.00;7.82;;;;;;;;;;5000585;28;25092;-68
2024/02/18 10:27:44;;;;;;;19.95;7.63;;;;;;;;;;5001694;28;25077;-67
2024/02/18 10:30:11;;;;;;;18.55;7.35;;;;;;;;;;4994781;28;25145;-68
2024/02/18 10:32:37;;;;;;;20.85;7.90;;;;;;;;;;4981392;28;25046;-70
2024/02/18 10:35:05;;;;;;;24.90;10.05;;;;;;;;;;4986829;28;25127;-69
2024/02/18 10:37:35;;;;;;;20.20;7.82;;;;;;;;;;5000379;28;25093;-68
2024/02/18 10:40:05;;;;;;;19.17;7.63;;;;;;;;;;5007516;28;25095;-69
2024/02/18 10:42:32;;;;;;;22.15;8.93;;;;;;;;;;4996324;28;25132;-68
2024/02/18 10:45:01;;;;;;;22.08;8.88;;;;;;;;;;5002763;28;25073;-66
2024/02/18 10:47:29;;;;;;;17.23;8.05;;;;;;;;;;4990326;28;25067;-67
2024/02/18 10:50:04;;;;;;;31.77;10.32;;;;;;;;;;4997166;28;25146;-68
2024/02/18 10:52:33;;;;;;;19.85;9.63;;;;;;;;;;4997372;28;25068;-68
2024/02/18 10:55:06;;;;;;;21.42;9.45;;;;;;;;;;5002581;28;25093;-70
2024/02/18 10:57:39;;;;;;;20.88;9.35;;;;;;;;;;5006694;28;25057;-67
2024/02/18 11:00:07;;;;;;;21.70;9.05;;;;;;;;;;5005451;28;25151;-68
2024/02/18 11:02:52;;;;;;;22.98;8.93;;;;;;;;;;5001574;28;25065;-68
2024/02/18 11:05:18;;;;;;;15.77;8.50;;;;;;;;;;5002973;28;25066;-68
2024/02/18 11:07:45;;;;;;;27.52;9.32;;;;;;;;;;5011019;28;25061;-68
2024/02/18 11:10:11;;;;;;;16.70;8.63;;;;;;;;;;5013177;28;25056;-66
2024/02/18 11:12:38;;;;;;;14.00;8.07;;;;;;;;;;5010556;28;25056;-68
2024/02/18 11:15:07;;;;;;;19.55;8.85;;;;;;;;;;5007640;28;25100;-66
2024/02/18 11:17:34;;;;;;;20.20;8.52;;;;;;;;;;5004219;28;25068;-70
2024/02/18 11:20:00;;;;;;;17.10;8.80;;;;;;;;;;5001023;28;25061;-70
2024/02/18 11:22:26;;;;;;;17.55;9.55;;;;;;;;;;5007026;28;25066;-68
2024/02/18 11:24:53;;;;;;;15.65;8.80;;;;;;;;;;4986058;28;25064;-68
2024/02/18 11:27:20;;;;;;;18.27;9.18;;;;;;;;;;4979211;28;25080;-68
2024/02/18 11:29:47;;;;;;;17.05;7.60;;;;;;;;;;5004190;28;25065;-68
2024/02/18 11:32:13;;;;;;;15.45;7.78;;;;;;;;;;5004919;28;25062;-69
2024/02/18 11:34:39;;;;;;;18.63;8.73;;;;;;;;;;5008710;28;25129;-69
2024/02/18 11:37:25;;;;;;;15.00;6.93;;;;;;;;;;4995133;28;25060;-67
2024/02/18 11:40:18;;;;;;;17.67;9.25;;;;;;;;;;4989861;28;25060;-69
2024/02/18 11:42:45;;;;;;;16.60;9.05;;;;;;;;;;4993426;28;25051;-72
2024/02/18 11:45:12;;;;;;;10.02;7.40;;;;;;;;;;5003149;28;25062;-70
2024/02/18 11:47:39;;;;;;;12.10;6.90;;;;;;;;;;4998719;28;25060;-71
2024/02/18 11:50:07;;;;;;;12.38;7.38;;;;;;;;;;4998555;28;25156;-71
2024/02/18 11:52:33;;;;;;;10.15;7.85;;;;;;;;;;4993467;28;25141;-71
2024/02/18 11:54:59;;;;;;;11.95;8.27;;;;;;;;;;5006638;28;25053;-70
2024/02/18 11:57:26;;;;;;;10.07;8.07;;;;;;;;;;5002886;28;25059;-71
2024/02/18 11:59:52;;;;;;;12.52;9.10;;;;;;;;;;4999989;28;25098;-67
2024/02/18 12:02:20;;;;;;;13.40;8.90;;;;;;;;;;5006122;28;25097;-70
2024/02/18 12:04:50;;;;;;;10.60;8.45;;;;;;;;;;5001426;28;25073;-69
2024/02/18 12:07:16;;;;;;;14.10;9.30;;;;;;;;;;4998600;28;25063;-70
2024/02/18 12:09:43;;;;;;;10.93;7.95;;;;;;;;;;4996124;28;25143;-70
2024/02/18 12:12:09;;;;;;;11.95;9.57;;;;;;;;;;4993746;28;25131;-70
2024/02/18 12:14:36;;;;;;;15.02;9.32;;;;;;;;;;4993784;28;25076;-71
2024/02/18 12:17:03;;;;;;;14.82;9.85;;;;;;;;;;5002005;28;25083;-72
2024/02/18 12:19:29;;;;;;;13.65;9.70;;;;;;;;;;4999348;28;25071;-70
2024/02/18 12:21:56;;;;;;;12.07;10.23;;;;;;;;;;5002080;28;25058;-70
2024/02/18 12:24:22;;;;;;;11.25;8.60;;;;;;;;;;4995216;28;24948;-73
2024/02/18 12:26:48;;;;;;;11.90;9.65;;;;;;;;;;5005291;28;25081;-69
2024/02/18 12:29:14;;;;;;;13.48;9.55;;;;;;;;;;5005569;28;25057;-69
2024/02/18 12:31:43;;;;;;;11.52;10.32;;;;;;;;;;5003421;28;25127;-72
2024/02/18 12:34:09;;;;;;;12.65;10.65;;;;;;;;;;5000754;28;25112;-70
2024/02/18 12:36:35;;;;;;;11.60;10.40;;;;;;;;;;5002394;28;25106;-70
2024/02/18 12:39:02;;;;;;;15.95;10.60;;;;;;;;;;5001204;28;25096;-72
2024/02/18 12:41:28;;;;;;;10.43;9.32;;;;;;;;;;5005244;28;25151;-69
2024/02/18 12:43:54;;;;;;;13.32;10.27;;;;;;;;;;4993104;28;25095;-68
2024/02/18 12:46:21;;;;;;;14.23;9.98;;;;;;;;;;4996106;28;25063;-71
2024/02/18 12:48:47;;;;;;;14.18;10.57;;;;;;;;;;4981570;28;25057;-68
2024/02/18 12:51:14;;;;;;;11.60;10.10;;;;;;;;;;5001075;28;25072;-70
2024/02/18 12:53:41;;;;;;;12.52;10.30;;;;;;;;;;4984287;28;25086;-72
2024/02/18 12:56:08;;;;;;;12.38;10.48;;;;;;;;;;4991870;28;25078;-70
2024/02/18 12:58:37;;;;;;;19.00;11.02;;;;;;;;;;5002352;28;25097;-70
2024/02/18 13:01:07;;;;;;;12.02;8.43;;;;;;;;;;5000985;28;25059;-72
2024/02/18 13:03:35;;;;;;;14.75;10.10;;;;;;;;;;4991088;28;25093;-69
2024/02/18 13:06:01;;;;;;;14.50;10.80;;;;;;;;;;5004642;28;25130;-71
2024/02/18 13:08:27;;;;;;;16.08;12.10;;;;;;;;;;4999467;28;25046;-69
2024/02/18 13:10:53;;;;;;;13.27;10.98;;;;;;;;;;5007676;28;25101;-71
2024/02/18 13:13:19;;;;;;;12.48;11.15;;;;;;;;;;4998885;28;25144;-69
2024/02/18 13:15:45;;;;;;;14.10;8.50;;;;;;;;;;4998467;28;25082;-70
2024/02/18 13:18:11;;;;;;;15.13;12.50;;;;;;;;;;4997509;28;25070;-72
2024/02/18 13:20:37;;;;;;;17.55;12.13;;;;;;;;;;5003677;28;25112;-72
2024/02/18 13:23:03;;;;;;;14.07;11.25;;;;;;;;;;5009788;28;25075;-71
2024/02/18 13:25:29;;;;;;;17.70;13.55;;;;;;;;;;5002526;28;25088;-71
2024/02/18 13:27:55;;;;;;;12.63;11.23;;;;;;;;;;5009029;28;25065;-70
2024/02/18 13:30:22;;;;;;;13.07;11.73;;;;;;;;;;5012644;28;25078;-71
2024/02/18 13:32:48;;;;;;;13.18;10.20;;;;;;;;;;5011780;28;24972;-71
2024/02/18 13:35:14;;;;;;;11.23;10.13;;;;;;;;;;5013451;28;25106;-71
2024/02/18 13:37:40;;;;;;;12.82;10.80;;;;;;;;;;5012826;28;25078;-71
2024/02/18 13:40:07;;;;;;;13.95;11.50;;;;;;;;;;5005444;28;25127;-73
2024/02/18 13:42:34;;;;;;;11.07;9.90;;;;;;;;;;4997187;28;25153;-71
2024/02/18 13:45:00;;;;;;;11.15;10.00;;;;;;;;;;4997740;28;25082;-70
2024/02/18 13:47:26;;;;;;;10.40;7.75;;;;;;;;;;4992727;28;25046;-73
2024/02/18 13:49:57;;;;;;;12.02;8.73;;;;;;;;;;4986018;28;25067;-72
2024/02/18 13:52:23;;;;;;;10.13;8.97;;;;;;;;;;5005108;28;25525;-72
2024/02/18 13:54:49;;;;;;;9.77;8.63;;;;;;;;;;5001715;28;25089;-72
2024/02/18 13:57:15;;;;;;;12.60;7.50;;;;;;;;;;5008894;28;25144;-70
2024/02/18 13:59:41;;;;;;;11.95;6.90;;;;;;;;;;4999048;28;25146;-73
2024/02/18 14:02:07;;;;;;;13.02;6.75;;;;;;;;;;5002361;28;25067;-74
2024/02/18 14:04:33;;;;;;;18.90;6.57;;;;;;;;;;4998377;28;25051;-71
2024/02/18 14:06:59;;;;;;;21.90;6.25;;;;;;;;;;5010130;28;25055;-68
2024/02/18 14:09:25;;;;;;;29.52;6.55;;;;;;;;;;5005333;28;25072;-72
2024/02/18 14:11:51;;;;;;;23.48;5.32;;;;;;;;;;5009882;28;25076;-70
2024/02/18 14:14:17;;;;;;;18.33;4.85;;;;;;;;;;5001588;28;25082;-73
2024/02/18 14:16:46;;;;;;;19.02;4.03;;;;;;;;;;5002206;28;25076;-71
2024/02/18 14:19:14;;;;;;;15.55;3.65;;;;;;;;;;5008847;28;25069;-71
2024/02/18 14:21:40;;;;;;;16.95;3.72;;;;;;;;;;5005817;28;25085;-70
2024/02/18 14:24:06;;;;;;;13.95;3.60;;;;;;;;;;5011287;28;25121;-70